Stockton, CA

11:04 AM PDT on May 24, 2015 (GMT -0700)
MesoWest | | Change Station
CLOSE
Current Station
Personal Weather Station
Location: French Camp, CA
Elevation: 17 ft
Nearby Weather Stations

Elev 17 ft 37.88 °N, 121.28 °W | Updated 33 minutes ago

Clear
Clear
75 °F
Feels Like 77 °F
N
6
Wind Variable Wind from West
Gusts 9.0 mph

Today
High -- | Low -- °F
--% Chance of Precip.
Yesterday
High -- | Low -- °F
Precip. -- in
5:48 AM 8:15 PM
Waxing Crescent, 41% visible
Pressure 29.96 in
Visibility 10.0 miles
Clouds Clear
Heat Index 77 °F
Dew Point 60 °F
Humidity 59%
Rainfall in
Snow Depth Not available.
UV 9 out of 12
Pollen 7.10 out of 12
Air Quality Not available.
Flu Activity Sporadic
METAR KSCK 241755Z 30006KT 10SM CLR 22/11 A2997 RMK AO2 SLP146 T02220111 10222 20106 58003 $

More Conditions Fewer Conditions

Pressure 29.96 in
Visibility 10.0 miles
Clouds Clear
Heat Index 77 °F
Dew Point 60 °F
Humidity 59%
Rainfall in
Snow Depth Not available.
UV 9 out of 12
Pollen 7.10 out of 12
Air Quality Not available.
Flu Activity Sporadic
METAR KSCK 241755Z 30006KT 10SM CLR 22/11 A2997 RMK AO2 SLP146 T02220111 10222 20106 58003 $

More Conditions Fewer Conditions

10-Day Weather Forecast

Almanac

Astronomy

May. 24, 2015 Rise Set
Actual Time
Civil Twilight
Nautical Twilight
Astronomical Twilight
Moon
Length of Visible Light
Length of Day
Tomorrow will be .
, % of the Moon is Illuminated

Today's Extremes

State Highs State Lows

Community

WunderPhotos

Upload Photos

1,823,813 photos uploaded!

WunderBlogs® & News

Nearby

Air Quality

  Air Quality AQ Index Pollutant
Not available.

Snow Depth

Station Depth Elevation

Earthquake Activity

City Distance Mag. Time & Date
Minimum magnitude displayed is 2.5.

Coastal Water Temperatures

Place Temperature

Stations

Nearby Weather Stations

Station Location Temp. Windchill Dew Point Humidity Wind Precip. Elev Updated Type